sensor_id;sensor_type;location;lat;lon;timestamp;P1;durP1;ratioP1;P2;durP2;ratioP2
69912;SDS011;57198;52.082;5.108;2024-03-08T00:00:09;27.42;;;15.93;;
69912;SDS011;57198;52.082;5.108;2024-03-08T00:02:39;26.55;;;16.38;;
69912;SDS011;57198;52.082;5.108;2024-03-08T00:05:07;29.65;;;17.48;;
69912;SDS011;57198;52.082;5.108;2024-03-08T00:07:38;27.33;;;16.63;;
69912;SDS011;57198;52.082;5.108;2024-03-08T00:10:07;28.48;;;17.88;;
69912;SDS011;57198;52.082;5.108;2024-03-08T00:12:40;29.05;;;18.13;;
69912;SDS011;57198;52.082;5.108;2024-03-08T00:15:09;30.83;;;18.17;;
69912;SDS011;57198;52.082;5.108;2024-03-08T00:17:37;30.85;;;18.15;;
69912;SDS011;57198;52.082;5.108;2024-03-08T00:20:05;28.63;;;16.83;;
69912;SDS011;57198;52.082;5.108;2024-03-08T00:22:35;27.27;;;16.25;;
69912;SDS011;57198;52.082;5.108;2024-03-08T00:25:02;30.40;;;17.77;;
69912;SDS011;57198;52.082;5.108;2024-03-08T00:27:30;27.35;;;17.02;;
69912;SDS011;57198;52.082;5.108;2024-03-08T00:29:58;26.88;;;17.08;;
69912;SDS011;57198;52.082;5.108;2024-03-08T00:32:25;28.97;;;16.93;;
69912;SDS011;57198;52.082;5.108;2024-03-08T00:34:54;27.17;;;16.27;;
69912;SDS011;57198;52.082;5.108;2024-03-08T00:37:21;27.92;;;17.63;;
69912;SDS011;57198;52.082;5.108;2024-03-08T00:39:49;29.35;;;17.35;;
69912;SDS011;57198;52.082;5.108;2024-03-08T00:42:17;27.98;;;16.98;;
69912;SDS011;57198;52.082;5.108;2024-03-08T00:44:45;26.73;;;16.83;;
69912;SDS011;57198;52.082;5.108;2024-03-08T00:47:12;27.23;;;16.08;;
69912;SDS011;57198;52.082;5.108;2024-03-08T00:49:41;27.92;;;17.50;;
69912;SDS011;57198;52.082;5.108;2024-03-08T00:52:08;25.73;;;15.80;;
69912;SDS011;57198;52.082;5.108;2024-03-08T00:54:36;28.52;;;16.40;;
69912;SDS011;57198;52.082;5.108;2024-03-08T00:57:03;28.57;;;16.33;;
69912;SDS011;57198;52.082;5.108;2024-03-08T00:59:31;28.80;;;16.55;;
69912;SDS011;57198;52.082;5.108;2024-03-08T01:02:01;29.23;;;17.80;;
69912;SDS011;57198;52.082;5.108;2024-03-08T01:04:29;28.25;;;15.93;;
69912;SDS011;57198;52.082;5.108;2024-03-08T01:06:56;29.58;;;17.73;;
69912;SDS011;57198;52.082;5.108;2024-03-08T01:09:24;29.07;;;16.87;;
69912;SDS011;57198;52.082;5.108;2024-03-08T01:11:53;26.67;;;15.75;;
69912;SDS011;57198;52.082;5.108;2024-03-08T01:14:21;23.38;;;16.15;;
69912;SDS011;57198;52.082;5.108;2024-03-08T01:16:49;25.17;;;15.82;;
69912;SDS011;57198;52.082;5.108;2024-03-08T01:19:16;27.52;;;17.50;;
69912;SDS011;57198;52.082;5.108;2024-03-08T01:21:44;31.10;;;16.23;;
69912;SDS011;57198;52.082;5.108;2024-03-08T01:24:11;27.63;;;16.55;;
69912;SDS011;57198;52.082;5.108;2024-03-08T01:26:39;28.38;;;16.92;;
69912;SDS011;57198;52.082;5.108;2024-03-08T01:29:06;31.75;;;17.58;;
69912;SDS011;57198;52.082;5.108;2024-03-08T01:31:34;27.98;;;16.92;;
69912;SDS011;57198;52.082;5.108;2024-03-08T01:34:03;30.93;;;18.17;;
69912;SDS011;57198;52.082;5.108;2024-03-08T01:36:31;28.88;;;16.85;;
69912;SDS011;57198;52.082;5.108;2024-03-08T01:38:58;31.00;;;17.35;;
69912;SDS011;57198;52.082;5.108;2024-03-08T01:41:26;27.10;;;16.75;;
69912;SDS011;57198;52.082;5.108;2024-03-08T01:43:56;26.83;;;17.73;;
69912;SDS011;57198;52.082;5.108;2024-03-08T01:46:23;27.17;;;16.67;;
69912;SDS011;57198;52.082;5.108;2024-03-08T01:48:51;28.48;;;17.73;;
69912;SDS011;57198;52.082;5.108;2024-03-08T01:51:19;30.60;;;17.45;;
69912;SDS011;57198;52.082;5.108;2024-03-08T01:53:47;25.73;;;16.50;;
69912;SDS011;57198;52.082;5.108;2024-03-08T01:56:15;26.80;;;17.10;;
69912;SDS011;57198;52.082;5.108;2024-03-08T01:58:44;27.30;;;16.00;;
69912;SDS011;57198;52.082;5.108;2024-03-08T02:01:13;29.55;;;17.48;;
69912;SDS011;57198;52.082;5.108;2024-03-08T02:03:41;36.20;;;17.33;;
69912;SDS011;57198;52.082;5.108;2024-03-08T02:06:12;28.42;;;16.85;;
69912;SDS011;57198;52.082;5.108;2024-03-08T02:08:43;27.98;;;17.95;;
69912;SDS011;57198;52.082;5.108;2024-03-08T02:11:12;24.93;;;16.40;;
69912;SDS011;57198;52.082;5.108;2024-03-08T02:13:40;28.08;;;17.42;;
69912;SDS011;57198;52.082;5.108;2024-03-08T02:16:07;24.85;;;17.85;;
69912;SDS011;57198;52.082;5.108;2024-03-08T02:18:35;30.45;;;18.25;;
69912;SDS011;57198;52.082;5.108;2024-03-08T02:21:04;27.33;;;17.88;;
69912;SDS011;57198;52.082;5.108;2024-03-08T02:23:32;27.63;;;17.50;;
69912;SDS011;57198;52.082;5.108;2024-03-08T02:26:01;28.88;;;17.60;;
69912;SDS011;57198;52.082;5.108;2024-03-08T02:28:28;28.20;;;17.98;;
69912;SDS011;57198;52.082;5.108;2024-03-08T02:30:56;25.85;;;17.10;;
69912;SDS011;57198;52.082;5.108;2024-03-08T02:33:25;29.17;;;17.45;;
69912;SDS011;57198;52.082;5.108;2024-03-08T02:35:53;26.67;;;17.43;;
69912;SDS011;57198;52.082;5.108;2024-03-08T02:38:22;28.25;;;17.85;;
69912;SDS011;57198;52.082;5.108;2024-03-08T02:40:52;27.95;;;18.27;;
69912;SDS011;57198;52.082;5.108;2024-03-08T02:43:20;27.17;;;18.42;;
69912;SDS011;57198;52.082;5.108;2024-03-08T02:45:51;27.25;;;17.73;;
69912;SDS011;57198;52.082;5.108;2024-03-08T02:48:19;26.23;;;17.87;;
69912;SDS011;57198;52.082;5.108;2024-03-08T02:50:48;29.08;;;17.65;;
69912;SDS011;57198;52.082;5.108;2024-03-08T02:53:18;28.88;;;18.70;;
69912;SDS011;57198;52.082;5.108;2024-03-08T02:55:45;28.58;;;17.50;;
69912;SDS011;57198;52.082;5.108;2024-03-08T02:58:13;26.90;;;17.65;;
69912;SDS011;57198;52.082;5.108;2024-03-08T03:00:41;31.27;;;17.93;;
69912;SDS011;57198;52.082;5.108;2024-03-08T03:03:11;26.65;;;17.38;;
69912;SDS011;57198;52.082;5.108;2024-03-08T03:05:38;26.33;;;18.48;;
69912;SDS011;57198;52.082;5.108;2024-03-08T03:08:14;30.13;;;18.63;;
69912;SDS011;57198;52.082;5.108;2024-03-08T03:10:44;27.48;;;18.35;;
69912;SDS011;57198;52.082;5.108;2024-03-08T03:13:12;26.43;;;18.23;;
69912;SDS011;57198;52.082;5.108;2024-03-08T03:15:40;26.77;;;18.38;;
69912;SDS011;57198;52.082;5.108;2024-03-08T03:18:10;27.13;;;18.95;;
69912;SDS011;57198;52.082;5.108;2024-03-08T03:20:38;30.70;;;18.42;;
69912;SDS011;57198;52.082;5.108;2024-03-08T03:23:09;29.83;;;19.00;;
69912;SDS011;57198;52.082;5.108;2024-03-08T03:25:41;28.40;;;18.77;;
69912;SDS011;57198;52.082;5.108;2024-03-08T03:28:09;25.02;;;18.10;;
69912;SDS011;57198;52.082;5.108;2024-03-08T03:30:38;26.05;;;17.25;;
69912;SDS011;57198;52.082;5.108;2024-03-08T03:33:05;25.13;;;17.75;;
69912;SDS011;57198;52.082;5.108;2024-03-08T03:35:34;27.77;;;18.77;;
69912;SDS011;57198;52.082;5.108;2024-03-08T03:38:03;29.90;;;19.00;;
69912;SDS011;57198;52.082;5.108;2024-03-08T03:40:37;27.67;;;18.52;;
69912;SDS011;57198;52.082;5.108;2024-03-08T03:43:05;27.20;;;19.42;;
69912;SDS011;57198;52.082;5.108;2024-03-08T03:45:32;27.92;;;18.75;;
69912;SDS011;57198;52.082;5.108;2024-03-08T03:48:03;28.70;;;18.70;;
69912;SDS011;57198;52.082;5.108;2024-03-08T03:50:31;30.63;;;19.30;;
69912;SDS011;57198;52.082;5.108;2024-03-08T03:53:03;29.55;;;19.65;;
69912;SDS011;57198;52.082;5.108;2024-03-08T03:55:30;26.67;;;19.42;;
69912;SDS011;57198;52.082;5.108;2024-03-08T03:57:58;28.42;;;19.10;;
69912;SDS011;57198;52.082;5.108;2024-03-08T04:00:27;27.45;;;19.45;;
69912;SDS011;57198;52.082;5.108;2024-03-08T04:02:55;24.60;;;18.23;;
69912;SDS011;57198;52.082;5.108;2024-03-08T04:05:25;26.13;;;18.88;;
69912;SDS011;57198;52.082;5.108;2024-03-08T04:07:53;26.08;;;18.75;;
69912;SDS011;57198;52.082;5.108;2024-03-08T04:10:21;27.23;;;18.67;;
69912;SDS011;57198;52.082;5.108;2024-03-08T04:12:48;29.50;;;20.17;;
69912;SDS011;57198;52.082;5.108;2024-03-08T04:15:16;27.00;;;18.10;;
69912;SDS011;57198;52.082;5.108;2024-03-08T04:17:43;26.45;;;18.30;;
69912;SDS011;57198;52.082;5.108;2024-03-08T04:20:13;27.48;;;19.42;;
69912;SDS011;57198;52.082;5.108;2024-03-08T04:22:41;24.67;;;17.70;;
69912;SDS011;57198;52.082;5.108;2024-03-08T04:25:11;27.27;;;18.98;;
69912;SDS011;57198;52.082;5.108;2024-03-08T04:27:38;29.03;;;19.27;;
69912;SDS011;57198;52.082;5.108;2024-03-08T04:30:07;27.88;;;19.33;;
69912;SDS011;57198;52.082;5.108;2024-03-08T04:32:35;26.98;;;18.55;;
69912;SDS011;57198;52.082;5.108;2024-03-08T04:35:03;25.98;;;18.73;;
69912;SDS011;57198;52.082;5.108;2024-03-08T04:37:30;29.05;;;19.65;;
69912;SDS011;57198;52.082;5.108;2024-03-08T04:39:58;26.80;;;18.23;;
69912;SDS011;57198;52.082;5.108;2024-03-08T04:42:26;24.65;;;17.48;;
69912;SDS011;57198;52.082;5.108;2024-03-08T04:44:56;27.33;;;19.35;;
69912;SDS011;57198;52.082;5.108;2024-03-08T04:47:24;29.65;;;20.98;;
69912;SDS011;57198;52.082;5.108;2024-03-08T04:49:51;27.88;;;19.00;;
69912;SDS011;57198;52.082;5.108;2024-03-08T04:52:19;26.57;;;17.77;;
69912;SDS011;57198;52.082;5.108;2024-03-08T04:54:48;28.45;;;18.48;;
69912;SDS011;57198;52.082;5.108;2024-03-08T04:57:16;27.45;;;19.15;;
69912;SDS011;57198;52.082;5.108;2024-03-08T04:59:45;26.63;;;17.98;;
69912;SDS011;57198;52.082;5.108;2024-03-08T05:02:13;24.80;;;18.90;;
69912;SDS011;57198;52.082;5.108;2024-03-08T05:04:40;27.57;;;19.00;;
69912;SDS011;57198;52.082;5.108;2024-03-08T05:07:09;25.33;;;18.30;;
69912;SDS011;57198;52.082;5.108;2024-03-08T05:09:36;30.80;;;20.23;;
69912;SDS011;57198;52.082;5.108;2024-03-08T05:12:04;28.10;;;20.10;;
69912;SDS011;57198;52.082;5.108;2024-03-08T05:14:32;30.52;;;20.25;;
69912;SDS011;57198;52.082;5.108;2024-03-08T05:17:01;29.17;;;19.27;;
69912;SDS011;57198;52.082;5.108;2024-03-08T05:19:28;26.80;;;19.20;;
69912;SDS011;57198;52.082;5.108;2024-03-08T05:22:00;27.27;;;19.38;;
69912;SDS011;57198;52.082;5.108;2024-03-08T05:24:28;27.88;;;19.73;;
69912;SDS011;57198;52.082;5.108;2024-03-08T05:26:59;27.00;;;19.85;;
69912;SDS011;57198;52.082;5.108;2024-03-08T05:29:27;26.23;;;19.57;;
69912;SDS011;57198;52.082;5.108;2024-03-08T05:31:55;26.70;;;19.52;;
69912;SDS011;57198;52.082;5.108;2024-03-08T05:34:24;27.17;;;19.92;;
69912;SDS011;57198;52.082;5.108;2024-03-08T05:36:52;29.98;;;19.63;;
69912;SDS011;57198;52.082;5.108;2024-03-08T05:39:21;29.77;;;20.52;;
69912;SDS011;57198;52.082;5.108;2024-03-08T05:41:50;28.03;;;19.90;;
69912;SDS011;57198;52.082;5.108;2024-03-08T05:44:17;27.73;;;18.30;;
69912;SDS011;57198;52.082;5.108;2024-03-08T05:46:45;29.27;;;20.38;;
69912;SDS011;57198;52.082;5.108;2024-03-08T05:49:13;27.02;;;19.30;;
69912;SDS011;57198;52.082;5.108;2024-03-08T05:51:41;32.00;;;20.67;;
69912;SDS011;57198;52.082;5.108;2024-03-08T05:54:09;26.90;;;18.37;;
69912;SDS011;57198;52.082;5.108;2024-03-08T05:56:40;26.20;;;19.30;;
69912;SDS011;57198;52.082;5.108;2024-03-08T05:59:11;27.45;;;20.35;;
69912;SDS011;57198;52.082;5.108;2024-03-08T06:01:40;25.58;;;17.90;;
69912;SDS011;57198;52.082;5.108;2024-03-08T06:04:09;29.98;;;20.35;;
69912;SDS011;57198;52.082;5.108;2024-03-08T06:06:38;27.33;;;19.03;;
69912;SDS011;57198;52.082;5.108;2024-03-08T06:09:06;27.25;;;18.85;;
69912;SDS011;57198;52.082;5.108;2024-03-08T06:11:44;31.13;;;20.40;;
69912;SDS011;57198;52.082;5.108;2024-03-08T06:14:11;27.90;;;19.35;;
69912;SDS011;57198;52.082;5.108;2024-03-08T06:16:39;30.77;;;20.00;;
69912;SDS011;57198;52.082;5.108;2024-03-08T06:19:06;30.87;;;20.97;;
69912;SDS011;57198;52.082;5.108;2024-03-08T06:21:34;29.65;;;19.80;;
69912;SDS011;57198;52.082;5.108;2024-03-08T06:24:01;30.40;;;20.85;;
69912;SDS011;57198;52.082;5.108;2024-03-08T06:26:29;25.50;;;19.65;;
69912;SDS011;57198;52.082;5.108;2024-03-08T06:28:58;30.10;;;18.85;;
69912;SDS011;57198;52.082;5.108;2024-03-08T06:31:26;23.97;;;18.07;;
69912;SDS011;57198;52.082;5.108;2024-03-08T06:33:53;27.67;;;19.02;;
69912;SDS011;57198;52.082;5.108;2024-03-08T06:36:22;27.52;;;20.13;;
69912;SDS011;57198;52.082;5.108;2024-03-08T06:38:50;27.85;;;19.27;;
69912;SDS011;57198;52.082;5.108;2024-03-08T06:41:18;28.73;;;19.65;;
69912;SDS011;57198;52.082;5.108;2024-03-08T06:43:46;30.73;;;18.27;;
69912;SDS011;57198;52.082;5.108;2024-03-08T06:46:14;26.42;;;18.27;;
69912;SDS011;57198;52.082;5.108;2024-03-08T06:48:42;28.05;;;19.30;;
69912;SDS011;57198;52.082;5.108;2024-03-08T06:51:10;26.63;;;18.65;;
69912;SDS011;57198;52.082;5.108;2024-03-08T06:53:38;28.52;;;18.55;;
69912;SDS011;57198;52.082;5.108;2024-03-08T06:56:05;28.00;;;19.40;;
69912;SDS011;57198;52.082;5.108;2024-03-08T06:58:34;28.10;;;18.80;;
69912;SDS011;57198;52.082;5.108;2024-03-08T07:01:02;25.90;;;19.52;;
69912;SDS011;57198;52.082;5.108;2024-03-08T07:03:33;24.75;;;18.15;;
69912;SDS011;57198;52.082;5.108;2024-03-08T07:06:01;28.20;;;18.88;;
69912;SDS011;57198;52.082;5.108;2024-03-08T07:08:30;27.17;;;19.97;;
69912;SDS011;57198;52.082;5.108;2024-03-08T07:10:57;29.55;;;19.58;;
69912;SDS011;57198;52.082;5.108;2024-03-08T07:13:26;26.00;;;18.88;;
69912;SDS011;57198;52.082;5.108;2024-03-08T07:15:57;26.65;;;18.80;;
69912;SDS011;57198;52.082;5.108;2024-03-08T07:18:27;26.90;;;18.63;;
69912;SDS011;57198;52.082;5.108;2024-03-08T07:20:57;25.40;;;17.43;;
69912;SDS011;57198;52.082;5.108;2024-03-08T07:23:25;26.05;;;18.05;;
69912;SDS011;57198;52.082;5.108;2024-03-08T07:26:11;28.38;;;20.15;;
69912;SDS011;57198;52.082;5.108;2024-03-08T07:28:42;26.88;;;18.98;;
69912;SDS011;57198;52.082;5.108;2024-03-08T07:31:09;26.20;;;18.83;;
69912;SDS011;57198;52.082;5.108;2024-03-08T07:33:49;27.97;;;18.83;;
69912;SDS011;57198;52.082;5.108;2024-03-08T07:36:17;27.23;;;19.23;;
69912;SDS011;57198;52.082;5.108;2024-03-08T07:38:44;30.20;;;20.88;;
69912;SDS011;57198;52.082;5.108;2024-03-08T07:41:14;29.75;;;19.65;;
69912;SDS011;57198;52.082;5.108;2024-03-08T07:43:42;27.02;;;19.27;;
69912;SDS011;57198;52.082;5.108;2024-03-08T07:46:10;24.63;;;18.03;;
69912;SDS011;57198;52.082;5.108;2024-03-08T07:48:39;29.77;;;18.15;;
69912;SDS011;57198;52.082;5.108;2024-03-08T07:51:07;27.48;;;19.95;;
69912;SDS011;57198;52.082;5.108;2024-03-08T07:53:36;26.98;;;17.90;;
69912;SDS011;57198;52.082;5.108;2024-03-08T07:56:04;28.08;;;19.40;;
69912;SDS011;57198;52.082;5.108;2024-03-08T07:58:32;24.37;;;18.27;;
69912;SDS011;57198;52.082;5.108;2024-03-08T08:01:01;26.83;;;18.75;;
69912;SDS011;57198;52.082;5.108;2024-03-08T08:03:29;27.55;;;19.30;;
69912;SDS011;57198;52.082;5.108;2024-03-08T08:05:56;27.10;;;19.02;;
69912;SDS011;57198;52.082;5.108;2024-03-08T08:08:24;27.92;;;18.65;;
69912;SDS011;57198;52.082;5.108;2024-03-08T08:10:53;26.53;;;18.57;;
69912;SDS011;57198;52.082;5.108;2024-03-08T08:13:20;26.38;;;17.80;;
69912;SDS011;57198;52.082;5.108;2024-03-08T08:15:49;26.42;;;19.02;;
69912;SDS011;57198;52.082;5.108;2024-03-08T08:18:16;27.77;;;17.65;;
69912;SDS011;57198;52.082;5.108;2024-03-08T08:20:46;28.88;;;20.17;;
69912;SDS011;57198;52.082;5.108;2024-03-08T08:23:14;28.07;;;19.43;;
69912;SDS011;57198;52.082;5.108;2024-03-08T08:25:42;24.38;;;17.25;;
69912;SDS011;57198;52.082;5.108;2024-03-08T08:28:09;27.92;;;19.02;;
69912;SDS011;57198;52.082;5.108;2024-03-08T08:30:39;27.48;;;19.73;;
69912;SDS011;57198;52.082;5.108;2024-03-08T08:33:06;27.25;;;19.25;;
69912;SDS011;57198;52.082;5.108;2024-03-08T08:35:35;25.30;;;17.83;;
69912;SDS011;57198;52.082;5.108;2024-03-08T08:38:02;26.20;;;18.38;;
69912;SDS011;57198;52.082;5.108;2024-03-08T08:40:30;23.88;;;17.77;;
69912;SDS011;57198;52.082;5.108;2024-03-08T08:42:59;23.20;;;17.52;;
69912;SDS011;57198;52.082;5.108;2024-03-08T08:45:26;26.75;;;18.80;;
69912;SDS011;57198;52.082;5.108;2024-03-08T08:47:54;23.70;;;17.33;;
69912;SDS011;57198;52.082;5.108;2024-03-08T08:50:22;26.40;;;18.98;;
69912;SDS011;57198;52.082;5.108;2024-03-08T08:52:50;24.17;;;17.48;;
69912;SDS011;57198;52.082;5.108;2024-03-08T08:55:18;22.15;;;16.27;;
69912;SDS011;57198;52.082;5.108;2024-03-08T08:57:52;26.20;;;18.00;;
69912;SDS011;57198;52.082;5.108;2024-03-08T09:00:20;21.33;;;17.30;;
69912;SDS011;57198;52.082;5.108;2024-03-08T09:02:48;23.70;;;17.05;;
69912;SDS011;57198;52.082;5.108;2024-03-08T09:05:17;25.30;;;18.95;;
69912;SDS011;57198;52.082;5.108;2024-03-08T09:07:45;24.30;;;17.10;;
69912;SDS011;57198;52.082;5.108;2024-03-08T09:10:12;24.00;;;18.02;;
69912;SDS011;57198;52.082;5.108;2024-03-08T09:12:43;22.70;;;17.23;;
69912;SDS011;57198;52.082;5.108;2024-03-08T09:15:11;24.70;;;18.05;;
69912;SDS011;57198;52.082;5.108;2024-03-08T09:17:39;24.88;;;17.42;;
69912;SDS011;57198;52.082;5.108;2024-03-08T09:20:08;24.65;;;16.67;;
69912;SDS011;57198;52.082;5.108;2024-03-08T09:22:37;24.15;;;16.63;;
69912;SDS011;57198;52.082;5.108;2024-03-08T09:25:06;24.30;;;17.33;;
69912;SDS011;57198;52.082;5.108;2024-03-08T09:27:34;22.85;;;16.88;;
69912;SDS011;57198;52.082;5.108;2024-03-08T09:30:05;25.00;;;18.80;;
69912;SDS011;57198;52.082;5.108;2024-03-08T09:32:33;26.00;;;17.75;;
69912;SDS011;57198;52.082;5.108;2024-03-08T09:35:02;21.40;;;15.75;;
69912;SDS011;57198;52.082;5.108;2024-03-08T09:37:29;21.17;;;15.27;;
69912;SDS011;57198;52.082;5.108;2024-03-08T09:39:57;24.08;;;16.40;;
69912;SDS011;57198;52.082;5.108;2024-03-08T09:42:26;23.10;;;17.45;;
69912;SDS011;57198;52.082;5.108;2024-03-08T09:44:53;21.48;;;16.35;;
69912;SDS011;57198;52.082;5.108;2024-03-08T09:47:21;22.00;;;17.23;;
69912;SDS011;57198;52.082;5.108;2024-03-08T09:49:49;22.20;;;16.17;;
69912;SDS011;57198;52.082;5.108;2024-03-08T09:52:17;19.85;;;15.95;;
69912;SDS011;57198;52.082;5.108;2024-03-08T09:54:45;18.15;;;15.48;;
69912;SDS011;57198;52.082;5.108;2024-03-08T09:57:13;19.77;;;16.00;;
69912;SDS011;57198;52.082;5.108;2024-03-08T09:59:43;18.65;;;15.27;;
69912;SDS011;57198;52.082;5.108;2024-03-08T10:02:14;23.60;;;15.77;;
69912;SDS011;57198;52.082;5.108;2024-03-08T10:04:42;17.90;;;15.68;;
69912;SDS011;57198;52.082;5.108;2024-03-08T10:07:10;17.52;;;15.32;;
69912;SDS011;57198;52.082;5.108;2024-03-08T10:09:38;17.17;;;14.68;;
69912;SDS011;57198;52.082;5.108;2024-03-08T10:12:06;17.02;;;15.32;;
69912;SDS011;57198;52.082;5.108;2024-03-08T10:14:34;16.70;;;15.03;;
69912;SDS011;57198;52.082;5.108;2024-03-08T10:17:03;17.52;;;15.63;;
69912;SDS011;57198;52.082;5.108;2024-03-08T10:19:31;15.43;;;13.98;;
69912;SDS011;57198;52.082;5.108;2024-03-08T10:21:59;14.80;;;13.40;;
69912;SDS011;57198;52.082;5.108;2024-03-08T10:24:26;15.55;;;13.95;;
69912;SDS011;57198;52.082;5.108;2024-03-08T10:27:01;17.57;;;13.90;;
69912;SDS011;57198;52.082;5.108;2024-03-08T10:29:31;15.88;;;14.27;;
69912;SDS011;57198;52.082;5.108;2024-03-08T10:31:59;16.10;;;14.60;;
69912;SDS011;57198;52.082;5.108;2024-03-08T10:34:27;15.10;;;13.60;;
69912;SDS011;57198;52.082;5.108;2024-03-08T10:36:57;13.98;;;12.57;;
69912;SDS011;57198;52.082;5.108;2024-03-08T10:39:29;17.80;;;13.37;;
69912;SDS011;57198;52.082;5.108;2024-03-08T10:42:02;13.85;;;12.55;;
69912;SDS011;57198;52.082;5.108;2024-03-08T10:44:32;13.80;;;12.55;;
69912;SDS011;57198;52.082;5.108;2024-03-08T10:49:32;13.05;;;11.85;;
69912;SDS011;57198;52.082;5.108;2024-03-08T10:52:05;16.13;;;12.53;;
69912;SDS011;57198;52.082;5.108;2024-03-08T10:54:36;13.00;;;11.80;;
69912;SDS011;57198;52.082;5.108;2024-03-08T10:57:12;13.23;;;12.02;;
69912;SDS011;57198;52.082;5.108;2024-03-08T10:59:40;12.77;;;11.68;;
69912;SDS011;57198;52.082;5.108;2024-03-08T11:02:11;11.95;;;10.73;;
69912;SDS011;57198;52.082;5.108;2024-03-08T11:04:39;12.43;;;11.33;;
69912;SDS011;57198;52.082;5.108;2024-03-08T11:07:12;12.05;;;10.77;;
69912;SDS011;57198;52.082;5.108;2024-03-08T11:09:44;11.73;;;10.63;;
69912;SDS011;57198;52.082;5.108;2024-03-08T11:12:18;11.45;;;10.45;;
69912;SDS011;57198;52.082;5.108;2024-03-08T11:14:47;11.10;;;10.10;;
69912;SDS011;57198;52.082;5.108;2024-03-08T11:18:01;10.50;;;9.57;;
69912;SDS011;57198;52.082;5.108;2024-03-08T11:20:10;10.75;;;9.85;;
69912;SDS011;57198;52.082;5.108;2024-03-08T11:22:49;11.25;;;10.20;;
69912;SDS011;57198;52.082;5.108;2024-03-08T11:31:22;10.87;;;9.87;;
69912;SDS011;57198;52.082;5.108;2024-03-08T11:33:35;10.20;;;9.30;;
69912;SDS011;57198;52.082;5.108;2024-03-08T11:36:12;9.95;;;9.15;;
69912;SDS011;57198;52.082;5.108;2024-03-08T11:38:43;11.40;;;10.30;;
69912;SDS011;57198;52.082;5.108;2024-03-08T11:41:11;11.18;;;9.98;;
69912;SDS011;57198;52.082;5.108;2024-03-08T11:43:44;11.20;;;10.10;;
69912;SDS011;57198;52.082;5.108;2024-03-08T11:46:12;10.45;;;9.45;;
69912;SDS011;57198;52.082;5.108;2024-03-08T11:48:41;10.55;;;9.65;;
69912;SDS011;57198;52.082;5.108;2024-03-08T11:51:08;10.18;;;9.27;;
69912;SDS011;57198;52.082;5.108;2024-03-08T11:53:38;11.88;;;10.05;;
69912;SDS011;57198;52.082;5.108;2024-03-08T11:56:15;11.20;;;10.03;;
69912;SDS011;57198;52.082;5.108;2024-03-08T11:58:47;10.27;;;9.32;;
69912;SDS011;57198;52.082;5.108;2024-03-08T12:01:19;9.68;;;8.70;;
69912;SDS011;57198;52.082;5.108;2024-03-08T12:03:52;11.98;;;8.88;;
69912;SDS011;57198;52.082;5.108;2024-03-08T12:06:19;9.77;;;8.77;;
69912;SDS011;57198;52.082;5.108;2024-03-08T12:08:47;9.20;;;8.40;;
69912;SDS011;57198;52.082;5.108;2024-03-08T12:11:15;9.55;;;8.40;;
69912;SDS011;57198;52.082;5.108;2024-03-08T12:13:45;9.38;;;8.57;;
69912;SDS011;57198;52.082;5.108;2024-03-08T12:16:19;9.02;;;8.27;;
69912;SDS011;57198;52.082;5.108;2024-03-08T12:18:51;9.82;;;8.82;;
69912;SDS011;57198;52.082;5.108;2024-03-08T12:21:20;13.40;;;9.40;;
69912;SDS011;57198;52.082;5.108;2024-03-08T12:23:50;9.85;;;8.95;;
69912;SDS011;57198;52.082;5.108;2024-03-08T12:26:29;10.57;;;9.55;;
69912;SDS011;57198;52.082;5.108;2024-03-08T12:29:14;10.48;;;9.10;;
69912;SDS011;57198;52.082;5.108;2024-03-08T12:31:47;13.52;;;10.23;;
69912;SDS011;57198;52.082;5.108;2024-03-08T12:34:16;12.07;;;10.97;;
69912;SDS011;57198;52.082;5.108;2024-03-08T12:36:50;12.27;;;11.05;;
69912;SDS011;57198;52.082;5.108;2024-03-08T12:39:21;15.73;;;10.90;;
69912;SDS011;57198;52.082;5.108;2024-03-08T12:41:49;15.93;;;11.25;;
69912;SDS011;57198;52.082;5.108;2024-03-08T12:44:19;13.05;;;10.73;;
69912;SDS011;57198;52.082;5.108;2024-03-08T12:46:51;11.93;;;10.73;;
69912;SDS011;57198;52.082;5.108;2024-03-08T12:49:20;11.73;;;10.63;;
69912;SDS011;57198;52.082;5.108;2024-03-08T12:51:49;12.23;;;11.02;;
69912;SDS011;57198;52.082;5.108;2024-03-08T12:54:18;12.38;;;10.98;;
69912;SDS011;57198;52.082;5.108;2024-03-08T12:56:50;14.48;;;11.93;;
69912;SDS011;57198;52.082;5.108;2024-03-08T12:59:20;14.10;;;10.63;;
69912;SDS011;57198;52.082;5.108;2024-03-08T13:01:48;12.40;;;11.10;;
69912;SDS011;57198;52.082;5.108;2024-03-08T13:04:18;12.32;;;11.13;;
69912;SDS011;57198;52.082;5.108;2024-03-08T13:06:48;12.52;;;11.07;;
69912;SDS011;57198;52.082;5.108;2024-03-08T13:09:20;13.65;;;11.60;;
69912;SDS011;57198;52.082;5.108;2024-03-08T13:11:49;13.13;;;11.80;;
69912;SDS011;57198;52.082;5.108;2024-03-08T13:14:16;15.05;;;11.55;;
69912;SDS011;57198;52.082;5.108;2024-03-08T13:16:44;12.77;;;10.82;;
69912;SDS011;57198;52.082;5.108;2024-03-08T13:19:15;12.60;;;11.30;;
69912;SDS011;57198;52.082;5.108;2024-03-08T13:21:43;14.95;;;11.25;;
69912;SDS011;57198;52.082;5.108;2024-03-08T13:24:16;17.60;;;12.13;;
69912;SDS011;57198;52.082;5.108;2024-03-08T13:26:46;16.48;;;11.80;;
69912;SDS011;57198;52.082;5.108;2024-03-08T13:29:14;15.40;;;12.07;;
69912;SDS011;57198;52.082;5.108;2024-03-08T13:31:41;12.52;;;10.95;;
69912;SDS011;57198;52.082;5.108;2024-03-08T13:34:09;14.63;;;12.52;;
69912;SDS011;57198;52.082;5.108;2024-03-08T13:36:38;14.03;;;12.37;;
69912;SDS011;57198;52.082;5.108;2024-03-08T13:39:10;13.75;;;12.27;;
69912;SDS011;57198;52.082;5.108;2024-03-08T13:41:47;18.60;;;12.32;;
69912;SDS011;57198;52.082;5.108;2024-03-08T13:44:14;15.82;;;12.00;;
69912;SDS011;57198;52.082;5.108;2024-03-08T13:46:43;16.20;;;12.55;;
69912;SDS011;57198;52.082;5.108;2024-03-08T13:49:11;14.13;;;12.60;;
69912;SDS011;57198;52.082;5.108;2024-03-08T13:51:39;14.25;;;12.18;;
69912;SDS011;57198;52.082;5.108;2024-03-08T13:54:07;14.63;;;13.13;;
69912;SDS011;57198;52.082;5.108;2024-03-08T13:56:36;13.75;;;11.90;;
69912;SDS011;57198;52.082;5.108;2024-03-08T13:59:03;14.10;;;12.25;;
69912;SDS011;57198;52.082;5.108;2024-03-08T14:01:31;14.30;;;11.30;;
69912;SDS011;57198;52.082;5.108;2024-03-08T14:03:58;14.20;;;12.70;;
69912;SDS011;57198;52.082;5.108;2024-03-08T14:06:26;17.02;;;13.25;;
69912;SDS011;57198;52.082;5.108;2024-03-08T14:08:53;17.58;;;13.57;;
69912;SDS011;57198;52.082;5.108;2024-03-08T14:11:23;19.85;;;13.40;;
69912;SDS011;57198;52.082;5.108;2024-03-08T14:13:51;12.80;;;10.77;;
69912;SDS011;57198;52.082;5.108;2024-03-08T14:16:18;17.80;;;12.88;;
69912;SDS011;57198;52.082;5.108;2024-03-08T14:18:46;15.55;;;13.27;;
69912;SDS011;57198;52.082;5.108;2024-03-08T14:21:14;15.65;;;13.60;;
69912;SDS011;57198;52.082;5.108;2024-03-08T14:23:41;16.55;;;13.63;;
69912;SDS011;57198;52.082;5.108;2024-03-08T14:26:09;16.50;;;12.43;;
69912;SDS011;57198;52.082;5.108;2024-03-08T14:28:37;16.48;;;12.32;;
69912;SDS011;57198;52.082;5.108;2024-03-08T14:31:05;15.93;;;13.52;;
69912;SDS011;57198;52.082;5.108;2024-03-08T14:33:37;16.70;;;13.13;;
69912;SDS011;57198;52.082;5.108;2024-03-08T14:36:05;16.17;;;13.30;;
69912;SDS011;57198;52.082;5.108;2024-03-08T14:38:32;16.67;;;13.27;;
69912;SDS011;57198;52.082;5.108;2024-03-08T14:41:01;18.75;;;13.90;;